createdAt,value
2022-08-17T00:00:43.214Z,98186.03
2022-08-17T00:03:38.506Z,98187.84
2022-08-17T00:07:21.243Z,98188.19
2022-08-17T00:09:48.506Z,98184.03
2022-08-17T00:12:43.683Z,98188.34
2022-08-17T00:15:08.288Z,98186.84
2022-08-17T00:17:38.410Z,98182.19
2022-08-17T00:21:23.904Z,98182.03
2022-08-17T00:25:07.593Z,98169.44
2022-08-17T00:27:36.881Z,98173.25
2022-08-17T00:30:10.243Z,98172.06
2022-08-17T00:33:52.809Z,98171.56
2022-08-17T00:37:35.420Z,98158.94
2022-08-17T00:40:05.471Z,98163.59
2022-08-17T00:42:33.689Z,98157.78
2022-08-17T00:45:01.281Z,98166.06
2022-08-17T00:48:44.369Z,98153.66
2022-08-17T00:52:27.553Z,98158.38
2022-08-17T00:56:10.224Z,98172.38
2022-08-17T01:00:01.731Z,98163.00
2022-08-17T01:03:45.699Z,98162.69
2022-08-17T01:06:13.798Z,98167.63
2022-08-17T01:08:42.389Z,98167.88
2022-08-17T01:11:10.226Z,98176.44
2022-08-17T01:13:43.318Z,98165.06
2022-08-17T01:16:32.312Z,98158.88
2022-08-17T01:19:09.168Z,98155.75
2022-08-17T01:21:48.095Z,98160.72
2022-08-17T01:24:17.115Z,98159.81
2022-08-17T01:26:46.243Z,98157.06
2022-08-17T01:29:14.461Z,98162.34
2022-08-17T01:31:53.519Z,98156.75
2022-08-17T01:34:22.187Z,98153.06
2022-08-17T01:36:51.900Z,98151.22
2022-08-17T01:39:45.407Z,98167.13
2022-08-17T01:42:39.738Z,98158.16
2022-08-17T01:45:17.602Z,98158.09
2022-08-17T01:47:45.728Z,98171.13
2022-08-17T01:50:32.384Z,98166.47
2022-08-17T01:53:10.379Z,98163.25
2022-08-17T01:55:47.779Z,98166.91
2022-08-17T01:58:15.382Z,98168.03
2022-08-17T02:01:00.084Z,98167.19
2022-08-17T02:03:30.296Z,98165.47
2022-08-17T02:05:58.301Z,98165.03
2022-08-17T02:08:39.562Z,98168.13
2022-08-17T02:11:19.581Z,98169.03
2022-08-17T02:13:57.953Z,98172.13
2022-08-17T02:16:37.814Z,98172.28
2022-08-17T02:19:15.818Z,98173.31
2022-08-17T02:21:49.018Z,98172.56
2022-08-17T02:25:00.359Z,98176.78
2022-08-17T02:27:22.122Z,98172.03
2022-08-17T02:29:49.635Z,98179.34
2022-08-17T02:32:28.114Z,98178.25
2022-08-17T02:34:58.343Z,98170.03
2022-08-17T02:37:28.687Z,98175.59
2022-08-17T02:39:58.558Z,98175.28
2022-08-17T02:42:40.772Z,98168.44
2022-08-17T02:45:23.446Z,98176.09
2022-08-17T02:47:52.298Z,98175.25
2022-08-17T02:50:24.188Z,98179.19
2022-08-17T02:53:02.544Z,98175.88
2022-08-17T02:55:38.013Z,98181.34
2022-08-17T02:58:06.079Z,98181.00
2022-08-17T03:00:47.850Z,98184.81
2022-08-17T03:03:20.373Z,98184.44
2022-08-17T03:05:53.491Z,98188.47
2022-08-17T03:08:21.315Z,98179.66
2022-08-17T03:10:50.190Z,98186.97
2022-08-17T03:13:17.778Z,98181.88
2022-08-17T03:15:47.329Z,98192.81
2022-08-17T03:18:25.051Z,98191.00
2022-08-17T03:20:58.681Z,98188.66
2022-08-17T03:23:29.627Z,98188.88
2022-08-17T03:25:58.769Z,98191.00
2022-08-17T03:28:28.212Z,98184.56
2022-08-17T03:30:55.495Z,98182.81
2022-08-17T03:33:23.080Z,98194.91
2022-08-17T03:35:50.842Z,98191.56
2022-08-17T03:38:18.708Z,98196.59
2022-08-17T03:40:57.975Z,98192.63
2022-08-17T03:43:31.722Z,98202.47
2022-08-17T03:46:34.315Z,98199.16
2022-08-17T03:49:26.342Z,98199.31
2022-08-17T03:52:15.333Z,98197.81
2022-08-17T03:55:03.812Z,98207.47
2022-08-17T03:57:32.476Z,98217.13
2022-08-17T03:59:59.906Z,98231.06
2022-08-17T04:02:33.198Z,98230.25
2022-08-17T04:05:01.154Z,98233.31
2022-08-17T04:07:31.827Z,98241.28
2022-08-17T04:09:59.804Z,98240.91
2022-08-17T04:12:31.611Z,98253.22
2022-08-17T04:15:03.813Z,98254.78
2022-08-17T04:17:30.981Z,98243.28
2022-08-17T04:19:58.333Z,98244.22
2022-08-17T04:22:30.996Z,98240.56
2022-08-17T04:25:18.532Z,98243.22
2022-08-17T04:27:45.772Z,98249.41
2022-08-17T04:30:13.614Z,98243.97
2022-08-17T04:33:20.115Z,98243.53
2022-08-17T04:35:54.547Z,98244.69
2022-08-17T04:38:27.134Z,98250.38
2022-08-17T04:41:15.859Z,98260.94
2022-08-17T04:43:46.650Z,98254.63
2022-08-17T04:46:19.518Z,98261.03
2022-08-17T04:48:52.544Z,98274.47
2022-08-17T04:51:35.389Z,98283.56
2022-08-17T04:54:10.538Z,98283.97
2022-08-17T04:56:39.446Z,98278.84
2022-08-17T04:59:21.095Z,98278.28
2022-08-17T05:01:51.678Z,98283.31
2022-08-17T05:04:35.131Z,98287.66
2022-08-17T05:07:04.461Z,98294.47
2022-08-17T05:09:32.445Z,98300.84
2022-08-17T05:12:05.935Z,98298.94
2022-08-17T05:14:33.952Z,98304.34
2022-08-17T05:17:09.439Z,98285.34
2022-08-17T05:19:38.659Z,98288.13
2022-08-17T05:22:06.426Z,98286.31
2022-08-17T05:24:42.716Z,98284.13
2022-08-17T05:27:21.302Z,98273.69
2022-08-17T05:29:51.070Z,98267.34
2022-08-17T05:32:39.407Z,98266.81
2022-08-17T05:35:08.494Z,98273.59
2022-08-17T05:37:35.699Z,98274.56
2022-08-17T05:40:03.700Z,98281.47
2022-08-17T05:42:31.169Z,98280.50
2022-08-17T05:44:58.840Z,98289.72
2022-08-17T05:47:27.663Z,98287.63
2022-08-17T05:49:55.513Z,98282.34
2022-08-17T05:53:22.079Z,98293.69
2022-08-17T05:56:41.078Z,98301.16
2022-08-17T05:59:19.916Z,98315.19
2022-08-17T06:02:11.655Z,98321.69
2022-08-17T06:05:17.177Z,98338.78
2022-08-17T06:08:24.989Z,98327.19
2022-08-17T06:11:10.780Z,98328.59
2022-08-17T06:14:22.703Z,98339.59
2022-08-17T06:17:00.981Z,98341.97
2022-08-17T06:19:44.559Z,98344.91
2022-08-17T06:22:18.745Z,98350.88
2022-08-17T06:25:01.233Z,98359.19
2022-08-17T06:27:53.627Z,98358.84
2022-08-17T06:30:36.720Z,98358.06
2022-08-17T06:33:34.279Z,98363.03
2022-08-17T06:36:18.621Z,98362.88
2022-08-17T06:39:31.852Z,98350.84
2022-08-17T06:43:02.597Z,98348.75
2022-08-17T06:45:43.971Z,98362.16
2022-08-17T06:48:31.595Z,98363.81
2022-08-17T06:51:22.957Z,98362.53
2022-08-17T06:54:07.125Z,98379.88
2022-08-17T06:57:16.645Z,98368.22
2022-08-17T07:00:00.618Z,98365.03
2022-08-17T07:02:54.294Z,98351.56
2022-08-17T07:06:27.598Z,98347.31
2022-08-17T07:09:13.897Z,98350.50
2022-08-17T07:12:03.281Z,98349.03
2022-08-17T07:14:36.686Z,98354.13
2022-08-17T07:17:46.793Z,98342.88
2022-08-17T07:20:22.710Z,98342.53
2022-08-17T07:23:19.077Z,98340.75
2022-08-17T07:25:46.692Z,98340.13
2022-08-17T07:28:22.901Z,98334.56
2022-08-17T07:30:55.059Z,98332.53
2022-08-17T07:33:28.527Z,98331.88
2022-08-17T07:35:58.210Z,98339.16
2022-08-17T07:38:35.439Z,98353.22
2022-08-17T07:41:10.616Z,98337.50
2022-08-17T07:43:41.181Z,98341.25
2022-08-17T07:46:30.001Z,98326.78
2022-08-17T07:49:08.792Z,98328.84
2022-08-17T07:51:44.080Z,98326.84
2022-08-17T07:54:22.526Z,98337.00
2022-08-17T07:57:32.234Z,98341.19
2022-08-17T08:00:15.310Z,98332.16
2022-08-17T08:03:00.126Z,98344.97
2022-08-17T08:05:50.266Z,98333.53
2022-08-17T08:08:42.268Z,98336.44
2022-08-17T08:11:15.515Z,98330.75
2022-08-17T08:13:45.652Z,98329.50
2022-08-17T08:16:33.471Z,98336.16
2022-08-17T08:19:02.715Z,98335.94
2022-08-17T08:21:48.417Z,98337.56
2022-08-17T08:24:43.015Z,98341.41
2022-08-17T08:27:22.276Z,98349.63
2022-08-17T08:30:21.544Z,98341.69
2022-08-17T08:33:39.873Z,98342.94
2022-08-17T08:37:20.628Z,98337.59
2022-08-17T08:40:40.823Z,98339.06
2022-08-17T08:44:02.572Z,98353.66
2022-08-17T08:47:00.839Z,98356.66
2022-08-17T08:50:04.867Z,98366.06
2022-08-17T08:53:15.970Z,98369.53
2022-08-17T08:56:06.294Z,98362.81
2022-08-17T08:59:25.492Z,98356.13
2022-08-17T09:02:17.149Z,98353.53
2022-08-17T09:05:14.219Z,98351.31
2022-08-17T09:07:46.509Z,98353.84
2022-08-17T09:10:34.903Z,98347.75
2022-08-17T09:13:54.639Z,98352.44
2022-08-17T09:17:19.172Z,98340.19
2022-08-17T09:20:27.380Z,98344.22
2022-08-17T09:23:15.261Z,98355.75
2022-08-17T09:26:41.646Z,98364.56
2022-08-17T09:29:18.028Z,98371.41
2022-08-17T09:31:59.653Z,98388.66
2022-08-17T09:35:14.429Z,98378.31
2022-08-17T09:37:59.155Z,98379.88
2022-08-17T09:40:49.314Z,98383.25
2022-08-17T09:43:48.184Z,98374.47
2022-08-17T09:46:34.566Z,98391.13
2022-08-17T09:49:36.203Z,98389.19
2022-08-17T09:52:27.432Z,98381.19
2022-08-17T09:54:58.119Z,98380.03
2022-08-17T09:57:43.652Z,98379.66
2022-08-17T10:00:31.627Z,98383.56
2022-08-17T10:03:39.063Z,98382.66
2022-08-17T10:06:30.375Z,98376.34
2022-08-17T10:09:15.572Z,98370.22
2022-08-17T10:12:17.472Z,98376.31
2022-08-17T10:15:59.125Z,98392.16
2022-08-17T10:19:22.963Z,98396.38
2022-08-17T10:22:34.600Z,98394.44
2022-08-17T10:25:30.199Z,98395.63
2022-08-17T10:29:25.428Z,98407.06
2022-08-17T10:33:15.450Z,98412.91
2022-08-17T10:36:58.449Z,98410.63
2022-08-17T10:40:42.645Z,98409.88
2022-08-17T10:43:44.746Z,98424.31
2022-08-17T10:47:11.734Z,98430.13
2022-08-17T10:49:47.808Z,98437.53
2022-08-17T10:53:30.781Z,98444.88
2022-08-17T10:57:13.055Z,98450.19
2022-08-17T10:59:41.901Z,98445.72
2022-08-17T11:02:43.856Z,98441.28
2022-08-17T11:06:26.492Z,98444.13
2022-08-17T11:10:09.057Z,98438.63
2022-08-17T11:13:53.421Z,98441.63
2022-08-17T11:17:36.321Z,98437.19
2022-08-17T11:20:25.024Z,98436.34
2022-08-17T11:23:19.667Z,98442.09
2022-08-17T11:25:58.541Z,98454.34
2022-08-17T11:28:34.582Z,98460.97
2022-08-17T11:31:37.940Z,98465.53
2022-08-17T11:34:21.298Z,98457.19
2022-08-17T11:37:28.875Z,98459.97
2022-08-17T11:40:14.889Z,98463.47
2022-08-17T11:43:25.326Z,98460.09
2022-08-17T11:46:16.979Z,98464.06
2022-08-17T11:49:12.121Z,98464.59
2022-08-17T11:52:01.463Z,98452.06
2022-08-17T11:54:47.334Z,98472.34
2022-08-17T11:57:26.681Z,98469.13
2022-08-17T12:00:08.640Z,98470.63
2022-08-17T12:02:47.419Z,98469.72
2022-08-17T12:05:16.887Z,98463.88
2022-08-17T12:08:06.164Z,98469.44
2022-08-17T12:10:48.016Z,98459.34
2022-08-17T12:13:19.118Z,98441.13
2022-08-17T12:15:52.782Z,98435.97
2022-08-17T12:18:28.473Z,98431.56
2022-08-17T12:21:16.641Z,98430.06
2022-08-17T12:24:22.841Z,98433.59
2022-08-17T12:26:59.766Z,98428.63
2022-08-17T12:29:38.392Z,98421.00
2022-08-17T12:32:18.260Z,98411.81
2022-08-17T12:34:49.445Z,98412.97
2022-08-17T12:37:21.871Z,98400.78
2022-08-17T12:40:24.306Z,98409.59
2022-08-17T12:43:07.648Z,98406.91
2022-08-17T12:45:39.810Z,98406.88
2022-08-17T12:48:26.915Z,98390.75
2022-08-17T12:51:03.737Z,98403.09
2022-08-17T12:53:36.872Z,98392.94
2022-08-17T12:56:13.314Z,98385.78
2022-08-17T12:58:54.039Z,98373.50
2022-08-17T13:01:23.338Z,98368.13
2022-08-17T13:03:59.732Z,98354.25
2022-08-17T13:06:36.557Z,98351.75
2022-08-17T13:09:35.949Z,98354.81
2022-08-17T13:12:08.648Z,98360.75
2022-08-17T13:14:36.193Z,98349.03
2022-08-17T13:17:11.114Z,98340.28
2022-08-17T13:19:49.859Z,98348.09
2022-08-17T13:22:24.029Z,98329.75
2022-08-17T13:25:07.018Z,98325.22
2022-08-17T13:27:34.725Z,98323.63
2022-08-17T13:30:12.201Z,98325.88
2022-08-17T13:32:48.595Z,98326.19
2022-08-17T13:39:25.366Z,98330.56
2022-08-17T13:41:56.026Z,98320.78
2022-08-17T13:44:40.407Z,98328.59
2022-08-17T13:47:21.129Z,98321.38
2022-08-17T13:49:49.579Z,98324.81
2022-08-17T13:52:43.479Z,98325.31
2022-08-17T13:55:22.201Z,98319.63
2022-08-17T13:58:04.205Z,98328.00
2022-08-17T14:00:36.831Z,98316.25
2022-08-17T14:03:05.931Z,98309.91
2022-08-17T14:05:33.895Z,98302.63
2022-08-17T14:08:06.933Z,98298.81
2022-08-17T14:10:36.911Z,98292.03
2022-08-17T14:13:06.546Z,98280.28
2022-08-17T14:15:54.003Z,98276.03
2022-08-17T14:18:53.491Z,98268.03
2022-08-17T14:21:10.876Z,98260.34
2022-08-17T14:23:38.419Z,98256.09
2022-08-17T14:26:06.276Z,98252.97
2022-08-17T14:28:33.588Z,98247.66
2022-08-17T14:31:03.693Z,98240.56
2022-08-17T14:33:31.037Z,98251.84
2022-08-17T14:35:58.640Z,98257.88
2022-08-17T14:38:26.245Z,98255.09
2022-08-17T14:40:54.132Z,98253.47
2022-08-17T14:43:21.428Z,98246.22
2022-08-17T14:45:48.667Z,98242.06
2022-08-17T14:48:16.223Z,98251.66
2022-08-17T14:50:44.204Z,98245.31
2022-08-17T14:53:16.059Z,98248.00
2022-08-17T14:55:45.762Z,98256.03
2022-08-17T14:58:14.589Z,98249.19
2022-08-17T15:00:43.586Z,98249.34
2022-08-17T15:03:11.737Z,98243.72
2022-08-17T15:05:39.929Z,98245.09
2022-08-17T15:08:07.979Z,98237.63
2022-08-17T15:10:40.239Z,98239.81
2022-08-17T15:13:23.485Z,98254.63
2022-08-17T15:15:52.312Z,98246.75
2022-08-17T15:18:20.064Z,98252.44
2022-08-17T15:20:50.031Z,98249.63
2022-08-17T15:23:22.124Z,98247.00
2022-08-17T15:25:53.251Z,98248.25
2022-08-17T15:28:25.015Z,98245.91
2022-08-17T15:30:54.179Z,98239.00
2022-08-17T15:33:29.447Z,98237.63
2022-08-17T15:36:02.114Z,98233.34
2022-08-17T15:38:35.210Z,98222.91
2022-08-17T15:41:02.719Z,98233.22
2022-08-17T15:43:32.629Z,98230.13
2022-08-17T15:46:18.800Z,98223.69
2022-08-17T15:48:50.931Z,98225.88
2022-08-17T15:51:24.185Z,98233.16
2022-08-17T15:54:04.557Z,98228.31
2022-08-17T15:57:04.521Z,98219.38
2022-08-17T15:59:31.762Z,98219.13
2022-08-17T16:03:15.925Z,98222.84
2022-08-17T16:04:48.936Z,98209.84
2022-08-17T16:07:26.783Z,98211.16
2022-08-17T16:09:54.599Z,98204.19
2022-08-17T16:12:22.314Z,98214.25
2022-08-17T16:14:53.277Z,98214.69
2022-08-17T16:17:38.953Z,98200.41
2022-08-17T16:20:20.262Z,98202.97
2022-08-17T16:22:50.876Z,98194.19
2022-08-17T16:25:50.414Z,98197.41
2022-08-17T16:28:16.235Z,98189.13
2022-08-17T16:30:44.412Z,98192.78
2022-08-17T16:33:13.508Z,98193.09
2022-08-17T16:35:41.927Z,98189.91
2022-08-17T16:38:10.969Z,98190.81
2022-08-17T16:40:39.007Z,98190.00
2022-08-17T16:43:10.534Z,98182.13
2022-08-17T16:45:40.304Z,98186.66
2022-08-17T16:48:10.122Z,98173.06
2022-08-17T16:50:38.003Z,98173.97
2022-08-17T16:53:17.749Z,98188.88
2022-08-17T16:55:48.581Z,98176.63
2022-08-17T16:58:16.244Z,98188.13
2022-08-17T17:00:45.871Z,98191.94
2022-08-17T17:03:27.756Z,98191.13
2022-08-17T17:06:31.428Z,98191.16
2022-08-17T17:09:07.806Z,98180.09
2022-08-17T17:11:52.860Z,98183.81
2022-08-17T17:14:43.708Z,98181.75
2022-08-17T17:17:36.464Z,98197.31
2022-08-17T17:20:25.958Z,98187.75
2022-08-17T17:23:11.319Z,98187.34
2022-08-17T17:26:48.538Z,98187.72
2022-08-17T17:30:02.336Z,98190.50
2022-08-17T17:33:48.072Z,98180.59
2022-08-17T17:36:41.263Z,98181.00
2022-08-17T17:40:24.357Z,98182.53
2022-08-17T17:43:05.424Z,98180.06
2022-08-17T17:45:54.175Z,98187.19
2022-08-17T17:49:37.126Z,98168.28
2022-08-17T17:53:19.934Z,98165.72
2022-08-17T17:56:40.269Z,98168.78
2022-08-17T18:00:27.407Z,98174.03
2022-08-17T18:04:16.974Z,98170.28
2022-08-17T18:08:10.843Z,98166.16
2022-08-17T18:11:24.231Z,98177.88
2022-08-17T18:14:26.872Z,98178.94
2022-08-17T18:18:09.651Z,98182.81
2022-08-17T18:20:54.024Z,98184.34
2022-08-17T18:23:27.892Z,98174.75
2022-08-17T18:27:11.269Z,98172.47
2022-08-17T18:30:54.020Z,98181.28
2022-08-17T18:34:48.320Z,98175.47
2022-08-17T18:37:38.352Z,98180.53
2022-08-17T18:40:37.540Z,98186.84
2022-08-17T18:43:24.430Z,98191.25
2022-08-17T18:47:07.410Z,98191.38
2022-08-17T18:50:51.367Z,98186.63
2022-08-17T18:54:37.556Z,98199.59
2022-08-17T18:57:07.715Z,98199.06
2022-08-17T18:59:49.511Z,98200.38
2022-08-17T19:03:32.292Z,98212.63
2022-08-17T19:07:14.819Z,98221.56
2022-08-17T19:10:57.313Z,98221.81
2022-08-17T19:14:39.843Z,98227.50
2022-08-17T19:17:48.556Z,98235.34
2022-08-17T19:20:38.067Z,98223.72
2022-08-17T19:24:20.477Z,98221.25
2022-08-17T19:27:16.680Z,98223.91
2022-08-17T19:30:08.538Z,98234.44
2022-08-17T19:32:36.473Z,98240.13
2022-08-17T19:35:11.416Z,98247.22
2022-08-17T19:38:13.427Z,98240.41
2022-08-17T19:41:20.388Z,98233.94
2022-08-17T19:44:32.142Z,98212.63
2022-08-17T19:47:53.232Z,98212.13
2022-08-17T19:51:08.210Z,98216.41
2022-08-17T19:54:06.442Z,98217.69
2022-08-17T19:57:02.912Z,98217.59
2022-08-17T20:00:11.495Z,98210.41
2022-08-17T20:03:06.309Z,98212.59
2022-08-17T20:06:10.838Z,98212.59
2022-08-17T20:08:43.313Z,98211.91
2022-08-17T20:11:31.712Z,98210.22
2022-08-17T20:14:20.029Z,98219.41
2022-08-17T20:16:48.171Z,98220.16
2022-08-17T20:19:57.389Z,98223.28
2022-08-17T20:22:49.357Z,98226.72
2022-08-17T20:25:45.413Z,98226.81
2022-08-17T20:29:13.870Z,98224.72
2022-08-17T20:31:56.441Z,98225.41
2022-08-17T20:34:30.830Z,98220.28
2022-08-17T20:37:31.228Z,98221.94
2022-08-17T20:39:58.401Z,98224.25
2022-08-17T20:42:27.228Z,98231.22
2022-08-17T20:45:20.671Z,98227.44
2022-08-17T20:48:33.338Z,98229.13
2022-08-17T20:51:00.601Z,98231.13
2022-08-17T20:54:06.825Z,98244.44
2022-08-17T20:56:44.259Z,98246.28
2022-08-17T20:59:27.512Z,98263.41
2022-08-17T21:02:18.139Z,98269.44
2022-08-17T21:05:23.337Z,98273.06
2022-08-17T21:08:16.685Z,98275.53
2022-08-17T21:10:47.038Z,98282.94
2022-08-17T21:13:15.721Z,98278.38
2022-08-17T21:16:21.235Z,98284.06
2022-08-17T21:20:13.281Z,98277.19
2022-08-17T21:22:59.005Z,98282.06
2022-08-17T21:26:50.705Z,98294.63
2022-08-17T21:29:31.912Z,98290.88
2022-08-17T21:32:03.092Z,98292.31
2022-08-17T21:35:02.234Z,98296.13
2022-08-17T21:38:45.448Z,98308.09
2022-08-17T21:41:57.962Z,98314.13
2022-08-17T21:45:41.182Z,98330.75
2022-08-17T21:49:23.572Z,98354.94
2022-08-17T21:53:08.732Z,98370.28
2022-08-17T21:56:51.763Z,98390.78
2022-08-17T22:00:34.300Z,98393.66
2022-08-17T22:03:24.610Z,98415.56
2022-08-17T22:07:07.211Z,98443.38
2022-08-17T22:10:51.187Z,98459.13
2022-08-17T22:14:53.370Z,98465.63
2022-08-17T22:18:36.815Z,98467.66
2022-08-17T22:21:06.073Z,98489.50
2022-08-17T22:24:06.589Z,98484.31
2022-08-17T22:27:11.538Z,98495.03
2022-08-17T22:29:59.365Z,98497.56
2022-08-17T22:32:43.761Z,98505.03
2022-08-17T22:35:29.170Z,98506.00
2022-08-17T22:37:58.946Z,98525.28
2022-08-17T22:40:34.420Z,98537.38
2022-08-17T22:43:03.464Z,98541.69
2022-08-17T22:45:31.134Z,98558.97
2022-08-17T22:48:01.982Z,98555.63
2022-08-17T22:50:33.012Z,98560.47
2022-08-17T22:53:35.620Z,98553.69
2022-08-17T22:56:22.880Z,98560.25
2022-08-17T22:59:17.458Z,98568.63
2022-08-17T23:02:23.283Z,98582.28
2022-08-17T23:05:11.070Z,98580.91
2022-08-17T23:07:39.735Z,98587.63
2022-08-17T23:10:12.495Z,98587.03
2022-08-17T23:12:40.794Z,98592.00
2022-08-17T23:15:17.800Z,98596.03
2022-08-17T23:17:45.896Z,98598.56
2022-08-17T23:20:17.415Z,98593.97
2022-08-17T23:22:52.816Z,98577.94
2022-08-17T23:25:33.540Z,98574.09
2022-08-17T23:28:07.274Z,98578.72
2022-08-17T23:30:42.533Z,98574.72
2022-08-17T23:33:31.172Z,98576.28
2022-08-17T23:36:01.449Z,98568.69
2022-08-17T23:38:28.889Z,98572.69
2022-08-17T23:41:04.389Z,98578.81
2022-08-17T23:43:31.849Z,98577.13
2022-08-17T23:46:00.773Z,98573.16
2022-08-17T23:48:34.931Z,98579.31
2022-08-17T23:51:14.004Z,98574.97
2022-08-17T23:53:47.897Z,98577.66
2022-08-17T23:56:18.244Z,98575.84
2022-08-17T23:58:45.471Z,98577.38
